createdAt,value
2023-03-07T00:04:27.480Z,99637.44
2023-03-07T00:11:29.198Z,99632.63
2023-03-07T00:18:30.953Z,99625.19
2023-03-07T00:25:32.537Z,99623.41
2023-03-07T00:32:34.208Z,99607.66
2023-03-07T00:46:36.421Z,99580.13
2023-03-07T00:53:38.180Z,99551.91
2023-03-07T01:00:39.935Z,99548.59
2023-03-07T01:07:41.511Z,99536.88
2023-03-07T01:14:43.227Z,99518.81
2023-03-07T01:21:45.116Z,99503.63
2023-03-07T01:28:46.918Z,99489.00
2023-03-07T01:35:48.667Z,99475.53
2023-03-07T01:42:52.993Z,99458.00
2023-03-07T01:49:56.374Z,99446.19
2023-03-07T01:56:58.374Z,99420.00
2023-03-07T02:04:07.535Z,99400.47
2023-03-07T02:11:09.430Z,99391.44
2023-03-07T02:18:12.772Z,99370.50
2023-03-07T02:25:29.554Z,99353.84
2023-03-07T02:32:31.271Z,99337.03
2023-03-07T02:39:33.164Z,99323.72
2023-03-07T02:46:36.502Z,99306.56
2023-03-07T02:53:38.309Z,99284.69
2023-03-07T03:00:40.304Z,99266.63
2023-03-07T03:07:42.193Z,99247.66
2023-03-07T03:14:43.937Z,99234.31
2023-03-07T03:21:46.417Z,99221.72
2023-03-07T03:28:48.450Z,99197.78
2023-03-07T03:35:50.770Z,99186.56
2023-03-07T03:42:52.620Z,99176.50
2023-03-07T03:49:56.076Z,99153.91
2023-03-07T03:56:57.912Z,99133.19
2023-03-07T04:03:59.597Z,99127.13
2023-03-07T04:11:01.850Z,99103.94
2023-03-07T04:18:03.844Z,99097.34
2023-03-07T04:25:06.451Z,99088.19
2023-03-07T04:32:08.242Z,99063.03
2023-03-07T04:39:10.010Z,99055.00
2023-03-07T04:46:13.004Z,99044.19
2023-03-07T04:53:15.003Z,99032.19
2023-03-07T05:00:17.257Z,99021.09
2023-03-07T05:07:19.286Z,99003.94
2023-03-07T05:14:21.121Z,99000.78
2023-03-07T05:21:22.824Z,98995.97
2023-03-07T05:28:25.001Z,98981.47
2023-03-07T05:35:27.446Z,98974.25
2023-03-07T05:42:31.642Z,98975.97
2023-03-07T05:49:33.331Z,98972.09
2023-03-07T05:56:35.362Z,98967.63
2023-03-07T06:03:37.226Z,98960.44
2023-03-07T06:10:40.181Z,98961.03
2023-03-07T06:17:45.082Z,98960.00
2023-03-07T06:24:46.957Z,98957.22
2023-03-07T06:31:55.001Z,98956.63
2023-03-07T06:38:56.958Z,98964.50
2023-03-07T06:45:59.113Z,98957.41
2023-03-07T06:53:05.099Z,98967.63
2023-03-07T07:00:07.438Z,98971.97
2023-03-07T07:07:09.131Z,98982.00
2023-03-07T07:14:10.942Z,98945.72
2023-03-07T07:21:13.682Z,98956.00
2023-03-07T07:28:15.797Z,98959.66
2023-03-07T07:35:17.703Z,98941.88
2023-03-07T07:42:19.938Z,98948.38
2023-03-07T07:49:35.736Z,98932.03
2023-03-07T07:56:37.494Z,98930.97
2023-03-07T08:03:39.075Z,98940.41
2023-03-07T08:10:43.057Z,98934.88
2023-03-07T08:17:44.593Z,98938.09
2023-03-07T08:24:46.676Z,98931.38
2023-03-07T08:31:51.216Z,98931.94
2023-03-07T08:38:52.821Z,98941.94
2023-03-07T08:45:54.502Z,98927.34
2023-03-07T08:52:57.587Z,98933.31
2023-03-07T08:59:59.169Z,98920.38
2023-03-07T09:07:01.729Z,98917.63
2023-03-07T09:14:03.448Z,98923.13
2023-03-07T09:21:05.499Z,98919.09
2023-03-07T09:28:07.081Z,98917.09
2023-03-07T09:35:08.920Z,98916.16
2023-03-07T09:42:19.410Z,98918.84
2023-03-07T09:49:25.733Z,98919.81
2023-03-07T09:56:30.404Z,98918.13
2023-03-07T10:03:31.881Z,98910.06
2023-03-07T10:11:02.374Z,98896.28
2023-03-07T10:18:21.842Z,98901.84
2023-03-07T10:25:34.099Z,98904.19
2023-03-07T10:32:46.808Z,98908.66
2023-03-07T10:39:54.576Z,98909.53
2023-03-07T10:46:57.894Z,98920.94
2023-03-07T10:53:59.446Z,98917.00
2023-03-07T11:01:07.131Z,98907.25
2023-03-07T11:08:21.452Z,98905.88
2023-03-07T11:15:27.381Z,98889.31
2023-03-07T11:22:36.603Z,98882.06
2023-03-07T11:29:38.273Z,98877.13
2023-03-07T11:36:40.066Z,98858.66
2023-03-07T11:44:10.597Z,98861.75
2023-03-07T11:51:41.957Z,98847.00
2023-03-07T11:59:06.146Z,98850.19
2023-03-07T12:06:43.127Z,98840.13
2023-03-07T12:14:03.228Z,98852.53
2023-03-07T12:21:17.865Z,98854.38
2023-03-07T12:28:48.668Z,98853.19
2023-03-07T12:35:51.704Z,98836.84
2023-03-07T12:43:05.515Z,98840.78
2023-03-07T12:50:16.082Z,98841.22
2023-03-07T12:57:26.527Z,98843.22
2023-03-07T13:04:38.656Z,98846.00
2023-03-07T13:12:09.127Z,98858.63
2023-03-07T13:19:42.739Z,98857.53
2023-03-07T13:26:44.337Z,98865.53
2023-03-07T13:33:46.777Z,98869.72
2023-03-07T13:40:55.440Z,98876.00
2023-03-07T13:47:56.960Z,98867.13
2023-03-07T13:54:59.275Z,98869.25
2023-03-07T14:02:01.520Z,98878.38
2023-03-07T14:09:05.109Z,98857.72
2023-03-07T14:16:50.844Z,98850.31
2023-03-07T14:24:13.977Z,98854.28
2023-03-07T14:31:26.538Z,98849.16
2023-03-07T14:38:28.205Z,98847.78
2023-03-07T14:45:50.637Z,98844.97
2023-03-07T14:52:56.053Z,98854.63
2023-03-07T15:00:12.841Z,98861.22
2023-03-07T15:07:20.662Z,98856.34
2023-03-07T15:14:27.228Z,98850.63
2023-03-07T15:21:32.444Z,98864.38
2023-03-07T15:28:35.478Z,98872.41
2023-03-07T15:35:37.093Z,98882.00
2023-03-07T15:42:55.579Z,98887.72
2023-03-07T15:49:58.812Z,98904.41
2023-03-07T15:57:05.535Z,98902.28
2023-03-07T16:04:31.100Z,98918.38
2023-03-07T16:11:32.847Z,98918.97
2023-03-07T16:18:34.584Z,98919.94
2023-03-07T16:25:36.858Z,98919.44
2023-03-07T16:32:38.492Z,98919.44
2023-03-07T16:39:41.015Z,98928.97
2023-03-07T16:46:44.693Z,98933.84
2023-03-07T16:53:46.859Z,98939.56
2023-03-07T17:00:48.439Z,98951.75
2023-03-07T17:07:50.226Z,98952.94
2023-03-07T17:14:51.756Z,98968.25
2023-03-07T17:21:53.356Z,98965.47
2023-03-07T17:28:55.179Z,98973.84
2023-03-07T17:35:58.053Z,98990.97
2023-03-07T17:42:59.698Z,98998.13
2023-03-07T17:50:01.570Z,98995.59
2023-03-07T17:57:03.381Z,98999.56
2023-03-07T18:04:06.562Z,99000.28
2023-03-07T18:11:09.728Z,99012.81
2023-03-07T18:18:11.416Z,99008.56
2023-03-07T18:25:14.113Z,99011.78
2023-03-07T18:32:15.934Z,99007.59
2023-03-07T18:39:17.463Z,99010.28
2023-03-07T18:46:20.077Z,99022.88
2023-03-07T18:53:21.767Z,99028.69
2023-03-07T19:00:23.480Z,99032.41
2023-03-07T19:07:24.996Z,99032.56
2023-03-07T19:14:26.561Z,99037.09
2023-03-07T19:21:28.564Z,99041.06
2023-03-07T19:28:30.237Z,99048.94
2023-03-07T19:35:31.785Z,99060.66
2023-03-07T19:42:33.379Z,99069.44
2023-03-07T19:49:34.897Z,99072.97
2023-03-07T19:56:38.369Z,99084.19
2023-03-07T20:03:39.959Z,99086.94
2023-03-07T20:10:41.657Z,99088.88
2023-03-07T20:17:43.199Z,99100.19
2023-03-07T20:24:44.727Z,99103.75
2023-03-07T20:31:47.144Z,99110.50
2023-03-07T20:38:52.822Z,99128.56
2023-03-07T20:45:54.643Z,99115.94
2023-03-07T20:52:56.229Z,99134.69
2023-03-07T20:59:57.752Z,99139.94
2023-03-07T21:06:59.565Z,99161.75
2023-03-07T21:14:02.294Z,99160.50
2023-03-07T21:21:05.414Z,99173.53
2023-03-07T21:28:07.176Z,99184.50
2023-03-07T21:35:09.169Z,99193.75
2023-03-07T21:42:10.696Z,99198.72
2023-03-07T21:49:13.019Z,99201.75
2023-03-07T21:56:17.033Z,99211.69
2023-03-07T22:03:18.846Z,99214.84
2023-03-07T22:10:21.136Z,99218.34
2023-03-07T22:17:22.704Z,99237.09
2023-03-07T22:24:24.205Z,99235.56
2023-03-07T22:31:25.976Z,99242.19
2023-03-07T22:38:28.883Z,99240.25
2023-03-07T22:45:30.641Z,99248.91
2023-03-07T22:52:32.284Z,99251.16
2023-03-07T22:59:33.809Z,99263.09
2023-03-07T23:06:36.005Z,99269.72
2023-03-07T23:13:37.641Z,99268.78
2023-03-07T23:20:39.179Z,99271.53
2023-03-07T23:27:40.788Z,99270.84
2023-03-07T23:34:42.552Z,99274.44
2023-03-07T23:41:44.107Z,99280.31
2023-03-07T23:48:45.612Z,99297.69
2023-03-07T23:55:47.203Z,99309.09
